sensor_id;sensor_type;location;lat;lon;timestamp;P1;durP1;ratioP1;P2;durP2;ratioP2
34134;SDS011;20410;55.578;12.968;2023-08-08T00:00:25;7.97;;;2.80;;
34134;SDS011;20410;55.578;12.968;2023-08-08T00:02:51;12.03;;;2.93;;
34134;SDS011;20410;55.578;12.968;2023-08-08T00:05:16;10.80;;;2.80;;
34134;SDS011;20410;55.578;12.968;2023-08-08T00:07:42;9.20;;;2.57;;
34134;SDS011;20410;55.578;12.968;2023-08-08T00:10:07;9.63;;;2.40;;
34134;SDS011;20410;55.578;12.968;2023-08-08T00:12:33;7.70;;;2.67;;
34134;SDS011;20410;55.578;12.968;2023-08-08T00:14:59;8.33;;;2.20;;
34134;SDS011;20410;55.578;12.968;2023-08-08T00:17:24;9.73;;;2.60;;
34134;SDS011;20410;55.578;12.968;2023-08-08T00:19:50;8.43;;;2.53;;
34134;SDS011;20410;55.578;12.968;2023-08-08T00:22:15;9.73;;;2.20;;
34134;SDS011;20410;55.578;12.968;2023-08-08T00:24:41;10.77;;;2.70;;
34134;SDS011;20410;55.578;12.968;2023-08-08T00:27:06;9.50;;;2.63;;
34134;SDS011;20410;55.578;12.968;2023-08-08T00:29:32;10.67;;;2.77;;
34134;SDS011;20410;55.578;12.968;2023-08-08T00:31:58;11.20;;;2.50;;
34134;SDS011;20410;55.578;12.968;2023-08-08T00:34:23;11.60;;;2.87;;
34134;SDS011;20410;55.578;12.968;2023-08-08T00:36:49;11.37;;;2.53;;
34134;SDS011;20410;55.578;12.968;2023-08-08T00:39:14;9.93;;;2.53;;
34134;SDS011;20410;55.578;12.968;2023-08-08T00:41:40;14.77;;;2.63;;
34134;SDS011;20410;55.578;12.968;2023-08-08T00:44:05;10.90;;;2.73;;
34134;SDS011;20410;55.578;12.968;2023-08-08T00:46:31;12.53;;;2.57;;
34134;SDS011;20410;55.578;12.968;2023-08-08T00:48:57;9.47;;;2.83;;
34134;SDS011;20410;55.578;12.968;2023-08-08T00:51:22;10.90;;;2.63;;
34134;SDS011;20410;55.578;12.968;2023-08-08T00:53:49;11.60;;;3.10;;
34134;SDS011;20410;55.578;12.968;2023-08-08T00:56:15;10.17;;;2.40;;
34134;SDS011;20410;55.578;12.968;2023-08-08T00:58:42;11.53;;;3.07;;
34134;SDS011;20410;55.578;12.968;2023-08-08T01:01:10;11.20;;;2.73;;
34134;SDS011;20410;55.578;12.968;2023-08-08T01:03:36;10.20;;;2.80;;
34134;SDS011;20410;55.578;12.968;2023-08-08T01:06:03;8.00;;;2.63;;
34134;SDS011;20410;55.578;12.968;2023-08-08T01:08:39;10.23;;;2.60;;
34134;SDS011;20410;55.578;12.968;2023-08-08T01:11:13;12.03;;;2.90;;
34134;SDS011;20410;55.578;12.968;2023-08-08T01:13:41;9.10;;;2.80;;
34134;SDS011;20410;55.578;12.968;2023-08-08T01:16:08;11.57;;;3.13;;
34134;SDS011;20410;55.578;12.968;2023-08-08T01:18:35;13.50;;;3.13;;
34134;SDS011;20410;55.578;12.968;2023-08-08T01:21:03;14.30;;;3.63;;
34134;SDS011;20410;55.578;12.968;2023-08-08T01:26:35;9.83;;;3.07;;
34134;SDS011;20410;55.578;12.968;2023-08-08T01:29:01;8.70;;;2.90;;
34134;SDS011;20410;55.578;12.968;2023-08-08T01:31:27;14.53;;;3.50;;
34134;SDS011;20410;55.578;12.968;2023-08-08T01:33:52;12.87;;;2.80;;
34134;SDS011;20410;55.578;12.968;2023-08-08T01:36:22;13.77;;;3.40;;
34134;SDS011;20410;55.578;12.968;2023-08-08T01:38:53;11.87;;;3.10;;
34134;SDS011;20410;55.578;12.968;2023-08-08T01:41:24;14.57;;;3.87;;
34134;SDS011;20410;55.578;12.968;2023-08-08T01:43:50;12.10;;;3.13;;
34134;SDS011;20410;55.578;12.968;2023-08-08T01:46:16;10.33;;;3.30;;
34134;SDS011;20410;55.578;12.968;2023-08-08T01:48:45;13.43;;;2.97;;
34134;SDS011;20410;55.578;12.968;2023-08-08T01:51:12;13.70;;;3.40;;
34134;SDS011;20410;55.578;12.968;2023-08-08T01:53:37;13.63;;;3.40;;
34134;SDS011;20410;55.578;12.968;2023-08-08T01:56:03;8.97;;;2.87;;
34134;SDS011;20410;55.578;12.968;2023-08-08T01:58:28;8.87;;;2.80;;
34134;SDS011;20410;55.578;12.968;2023-08-08T02:00:54;15.77;;;3.60;;
34134;SDS011;20410;55.578;12.968;2023-08-08T02:03:19;14.23;;;3.77;;
34134;SDS011;20410;55.578;12.968;2023-08-08T02:05:45;13.60;;;4.07;;
34134;SDS011;20410;55.578;12.968;2023-08-08T02:08:10;12.50;;;3.47;;
34134;SDS011;20410;55.578;12.968;2023-08-08T02:10:37;15.57;;;3.83;;
34134;SDS011;20410;55.578;12.968;2023-08-08T02:13:03;13.37;;;3.67;;
34134;SDS011;20410;55.578;12.968;2023-08-08T02:15:28;12.93;;;3.30;;
34134;SDS011;20410;55.578;12.968;2023-08-08T02:17:54;13.53;;;3.47;;
34134;SDS011;20410;55.578;12.968;2023-08-08T02:20:20;11.37;;;3.33;;
34134;SDS011;20410;55.578;12.968;2023-08-08T02:22:45;15.50;;;3.77;;
34134;SDS011;20410;55.578;12.968;2023-08-08T02:25:11;13.93;;;3.70;;
34134;SDS011;20410;55.578;12.968;2023-08-08T02:27:36;15.27;;;3.63;;
34134;SDS011;20410;55.578;12.968;2023-08-08T02:30:02;13.07;;;3.37;;
34134;SDS011;20410;55.578;12.968;2023-08-08T02:32:28;13.43;;;3.27;;
34134;SDS011;20410;55.578;12.968;2023-08-08T02:34:53;16.97;;;3.30;;
34134;SDS011;20410;55.578;12.968;2023-08-08T02:37:19;13.87;;;3.77;;
34134;SDS011;20410;55.578;12.968;2023-08-08T02:39:45;17.23;;;4.20;;
34134;SDS011;20410;55.578;12.968;2023-08-08T02:42:10;15.57;;;4.20;;
34134;SDS011;20410;55.578;12.968;2023-08-08T02:44:36;17.23;;;3.90;;
34134;SDS011;20410;55.578;12.968;2023-08-08T02:47:01;19.70;;;4.30;;
34134;SDS011;20410;55.578;12.968;2023-08-08T02:49:27;19.57;;;4.63;;
34134;SDS011;20410;55.578;12.968;2023-08-08T02:51:53;16.97;;;4.17;;
34134;SDS011;20410;55.578;12.968;2023-08-08T02:54:19;17.93;;;3.77;;
34134;SDS011;20410;55.578;12.968;2023-08-08T02:56:44;16.20;;;4.20;;
34134;SDS011;20410;55.578;12.968;2023-08-08T02:59:10;17.97;;;4.07;;
34134;SDS011;20410;55.578;12.968;2023-08-08T03:01:35;14.00;;;3.93;;
34134;SDS011;20410;55.578;12.968;2023-08-08T03:04:04;18.47;;;4.47;;
34134;SDS011;20410;55.578;12.968;2023-08-08T03:06:30;12.27;;;3.70;;
34134;SDS011;20410;55.578;12.968;2023-08-08T03:08:56;16.97;;;4.20;;
34134;SDS011;20410;55.578;12.968;2023-08-08T03:11:21;19.73;;;4.50;;
34134;SDS011;20410;55.578;12.968;2023-08-08T03:13:47;13.93;;;3.90;;
34134;SDS011;20410;55.578;12.968;2023-08-08T03:16:12;18.63;;;4.80;;
34134;SDS011;20410;55.578;12.968;2023-08-08T03:18:38;18.07;;;4.40;;
34134;SDS011;20410;55.578;12.968;2023-08-08T03:21:03;16.80;;;4.80;;
34134;SDS011;20410;55.578;12.968;2023-08-08T03:23:29;18.00;;;4.60;;
34134;SDS011;20410;55.578;12.968;2023-08-08T03:25:54;16.23;;;4.33;;
34134;SDS011;20410;55.578;12.968;2023-08-08T03:28:20;18.67;;;3.97;;
34134;SDS011;20410;55.578;12.968;2023-08-08T03:30:45;22.57;;;4.00;;
34134;SDS011;20410;55.578;12.968;2023-08-08T03:33:11;15.53;;;4.30;;
34134;SDS011;20410;55.578;12.968;2023-08-08T03:35:36;21.00;;;4.90;;
34134;SDS011;20410;55.578;12.968;2023-08-08T03:38:02;18.60;;;4.47;;
34134;SDS011;20410;55.578;12.968;2023-08-08T03:40:28;14.83;;;3.93;;
34134;SDS011;20410;55.578;12.968;2023-08-08T03:42:53;19.17;;;4.23;;
34134;SDS011;20410;55.578;12.968;2023-08-08T03:45:19;19.90;;;3.87;;
34134;SDS011;20410;55.578;12.968;2023-08-08T03:47:44;20.37;;;4.80;;
34134;SDS011;20410;55.578;12.968;2023-08-08T03:50:10;19.37;;;4.07;;
34134;SDS011;20410;55.578;12.968;2023-08-08T03:52:36;13.87;;;3.70;;
34134;SDS011;20410;55.578;12.968;2023-08-08T03:55:03;19.73;;;4.27;;
34134;SDS011;20410;55.578;12.968;2023-08-08T03:57:29;17.73;;;4.20;;
34134;SDS011;20410;55.578;12.968;2023-08-08T03:59:55;15.37;;;3.53;;
34134;SDS011;20410;55.578;12.968;2023-08-08T04:02:20;13.20;;;4.00;;
34134;SDS011;20410;55.578;12.968;2023-08-08T04:04:46;18.23;;;4.10;;
34134;SDS011;20410;55.578;12.968;2023-08-08T04:07:11;15.27;;;3.70;;
34134;SDS011;20410;55.578;12.968;2023-08-08T04:09:37;13.47;;;4.10;;
34134;SDS011;20410;55.578;12.968;2023-08-08T04:12:02;19.93;;;3.70;;
34134;SDS011;20410;55.578;12.968;2023-08-08T04:14:28;20.10;;;4.53;;
34134;SDS011;20410;55.578;12.968;2023-08-08T04:16:54;15.97;;;4.30;;
34134;SDS011;20410;55.578;12.968;2023-08-08T04:19:19;15.83;;;3.87;;
34134;SDS011;20410;55.578;12.968;2023-08-08T04:21:45;15.73;;;4.00;;
34134;SDS011;20410;55.578;12.968;2023-08-08T04:24:11;17.63;;;3.87;;
34134;SDS011;20410;55.578;12.968;2023-08-08T04:26:37;17.07;;;4.70;;
34134;SDS011;20410;55.578;12.968;2023-08-08T04:29:03;14.50;;;4.27;;
34134;SDS011;20410;55.578;12.968;2023-08-08T04:31:29;15.93;;;4.40;;
34134;SDS011;20410;55.578;12.968;2023-08-08T04:33:54;15.13;;;4.00;;
34134;SDS011;20410;55.578;12.968;2023-08-08T04:36:24;16.20;;;4.07;;
34134;SDS011;20410;55.578;12.968;2023-08-08T04:38:51;18.10;;;3.80;;
34134;SDS011;20410;55.578;12.968;2023-08-08T04:41:16;15.20;;;4.57;;
34134;SDS011;20410;55.578;12.968;2023-08-08T04:43:42;19.17;;;4.57;;
34134;SDS011;20410;55.578;12.968;2023-08-08T04:46:07;23.13;;;4.27;;
34134;SDS011;20410;55.578;12.968;2023-08-08T04:48:34;13.63;;;3.70;;
34134;SDS011;20410;55.578;12.968;2023-08-08T04:51:02;14.97;;;3.90;;
34134;SDS011;20410;55.578;12.968;2023-08-08T04:53:29;13.83;;;3.10;;
34134;SDS011;20410;55.578;12.968;2023-08-08T04:55:55;17.50;;;4.00;;
34134;SDS011;20410;55.578;12.968;2023-08-08T04:58:20;14.10;;;4.00;;
34134;SDS011;20410;55.578;12.968;2023-08-08T05:00:46;19.47;;;4.10;;
34134;SDS011;20410;55.578;12.968;2023-08-08T05:03:11;17.47;;;4.50;;
34134;SDS011;20410;55.578;12.968;2023-08-08T05:05:37;18.00;;;4.40;;
34134;SDS011;20410;55.578;12.968;2023-08-08T05:08:02;15.73;;;4.40;;
34134;SDS011;20410;55.578;12.968;2023-08-08T05:10:28;17.37;;;3.87;;
34134;SDS011;20410;55.578;12.968;2023-08-08T05:12:56;18.43;;;4.57;;
34134;SDS011;20410;55.578;12.968;2023-08-08T05:15:22;12.80;;;3.33;;
34134;SDS011;20410;55.578;12.968;2023-08-08T05:17:47;20.00;;;4.07;;
34134;SDS011;20410;55.578;12.968;2023-08-08T05:20:13;17.37;;;3.50;;
34134;SDS011;20410;55.578;12.968;2023-08-08T05:22:38;14.87;;;3.87;;
34134;SDS011;20410;55.578;12.968;2023-08-08T05:25:04;18.70;;;4.33;;
34134;SDS011;20410;55.578;12.968;2023-08-08T05:27:30;15.77;;;3.80;;
34134;SDS011;20410;55.578;12.968;2023-08-08T05:29:55;15.17;;;3.67;;
34134;SDS011;20410;55.578;12.968;2023-08-08T05:32:21;14.87;;;3.90;;
34134;SDS011;20410;55.578;12.968;2023-08-08T05:34:46;11.83;;;3.70;;
34134;SDS011;20410;55.578;12.968;2023-08-08T05:37:14;14.70;;;3.70;;
34134;SDS011;20410;55.578;12.968;2023-08-08T05:39:39;14.87;;;4.07;;
34134;SDS011;20410;55.578;12.968;2023-08-08T05:42:05;16.13;;;4.00;;
34134;SDS011;20410;55.578;12.968;2023-08-08T05:44:31;19.60;;;4.57;;
34134;SDS011;20410;55.578;12.968;2023-08-08T05:46:56;14.90;;;3.40;;
34134;SDS011;20410;55.578;12.968;2023-08-08T05:49:22;19.97;;;3.57;;
34134;SDS011;20410;55.578;12.968;2023-08-08T05:51:47;13.67;;;3.83;;
34134;SDS011;20410;55.578;12.968;2023-08-08T05:54:13;13.90;;;3.60;;
34134;SDS011;20410;55.578;12.968;2023-08-08T05:56:38;14.80;;;4.00;;
34134;SDS011;20410;55.578;12.968;2023-08-08T05:59:04;14.10;;;4.10;;
34134;SDS011;20410;55.578;12.968;2023-08-08T06:01:30;19.03;;;4.17;;
34134;SDS011;20410;55.578;12.968;2023-08-08T06:03:56;12.20;;;3.47;;
34134;SDS011;20410;55.578;12.968;2023-08-08T06:06:24;15.33;;;4.43;;
34134;SDS011;20410;55.578;12.968;2023-08-08T06:08:50;13.00;;;3.63;;
34134;SDS011;20410;55.578;12.968;2023-08-08T06:11:16;13.00;;;3.80;;
34134;SDS011;20410;55.578;12.968;2023-08-08T06:13:42;13.30;;;3.50;;
34134;SDS011;20410;55.578;12.968;2023-08-08T06:16:07;11.63;;;3.73;;
34134;SDS011;20410;55.578;12.968;2023-08-08T06:18:33;15.33;;;3.27;;
34134;SDS011;20410;55.578;12.968;2023-08-08T06:20:59;15.57;;;3.83;;
34134;SDS011;20410;55.578;12.968;2023-08-08T06:23:24;11.57;;;3.37;;
34134;SDS011;20410;55.578;12.968;2023-08-08T06:25:50;15.10;;;3.70;;
34134;SDS011;20410;55.578;12.968;2023-08-08T06:28:15;14.07;;;3.30;;
34134;SDS011;20410;55.578;12.968;2023-08-08T06:30:41;15.50;;;3.90;;
34134;SDS011;20410;55.578;12.968;2023-08-08T06:33:07;13.27;;;3.70;;
34134;SDS011;20410;55.578;12.968;2023-08-08T06:35:33;12.07;;;3.63;;
34134;SDS011;20410;55.578;12.968;2023-08-08T06:37:59;14.63;;;3.40;;
34134;SDS011;20410;55.578;12.968;2023-08-08T06:40:24;15.83;;;4.00;;
34134;SDS011;20410;55.578;12.968;2023-08-08T06:42:50;16.40;;;3.60;;
34134;SDS011;20410;55.578;12.968;2023-08-08T06:45:15;15.87;;;4.33;;
34134;SDS011;20410;55.578;12.968;2023-08-08T06:47:41;11.20;;;3.40;;
34134;SDS011;20410;55.578;12.968;2023-08-08T06:50:07;15.73;;;4.53;;
34134;SDS011;20410;55.578;12.968;2023-08-08T06:52:32;11.87;;;3.80;;
34134;SDS011;20410;55.578;12.968;2023-08-08T06:54:58;16.13;;;4.33;;
34134;SDS011;20410;55.578;12.968;2023-08-08T06:57:24;11.47;;;3.50;;
34134;SDS011;20410;55.578;12.968;2023-08-08T06:59:49;13.20;;;3.33;;
34134;SDS011;20410;55.578;12.968;2023-08-08T07:02:18;13.23;;;3.87;;
34134;SDS011;20410;55.578;12.968;2023-08-08T07:04:44;15.20;;;3.57;;
34134;SDS011;20410;55.578;12.968;2023-08-08T07:07:09;13.35;;;3.30;;
34134;SDS011;20410;55.578;12.968;2023-08-08T07:09:35;15.50;;;3.60;;
34134;SDS011;20410;55.578;12.968;2023-08-08T07:12:02;18.40;;;3.57;;
34134;SDS011;20410;55.578;12.968;2023-08-08T07:14:28;12.27;;;3.17;;
34134;SDS011;20410;55.578;12.968;2023-08-08T07:16:54;15.60;;;3.40;;
34134;SDS011;20410;55.578;12.968;2023-08-08T07:19:19;19.55;;;3.83;;
34134;SDS011;20410;55.578;12.968;2023-08-08T07:21:45;12.10;;;3.70;;
34134;SDS011;20410;55.578;12.968;2023-08-08T07:24:11;10.97;;;3.20;;
34134;SDS011;20410;55.578;12.968;2023-08-08T07:26:37;11.73;;;3.20;;
34134;SDS011;20410;55.578;12.968;2023-08-08T07:29:03;13.45;;;3.78;;
34134;SDS011;20410;55.578;12.968;2023-08-08T07:31:31;11.93;;;3.60;;
34134;SDS011;20410;55.578;12.968;2023-08-08T07:33:57;11.70;;;3.30;;
34134;SDS011;20410;55.578;12.968;2023-08-08T07:36:23;11.57;;;3.57;;
34134;SDS011;20410;55.578;12.968;2023-08-08T07:38:48;12.90;;;3.47;;
34134;SDS011;20410;55.578;12.968;2023-08-08T07:41:14;10.90;;;3.37;;
34134;SDS011;20410;55.578;12.968;2023-08-08T07:43:40;12.73;;;3.30;;
34134;SDS011;20410;55.578;12.968;2023-08-08T07:46:05;14.38;;;3.53;;
34134;SDS011;20410;55.578;12.968;2023-08-08T07:48:31;12.60;;;3.28;;
34134;SDS011;20410;55.578;12.968;2023-08-08T07:50:56;11.60;;;3.13;;
34134;SDS011;20410;55.578;12.968;2023-08-08T07:53:22;11.63;;;3.17;;
34134;SDS011;20410;55.578;12.968;2023-08-08T07:55:48;9.15;;;2.92;;
34134;SDS011;20410;55.578;12.968;2023-08-08T07:58:13;10.55;;;3.17;;
34134;SDS011;20410;55.578;12.968;2023-08-08T08:00:39;8.85;;;3.22;;
34134;SDS011;20410;55.578;12.968;2023-08-08T08:03:04;9.30;;;3.05;;
34134;SDS011;20410;55.578;12.968;2023-08-08T08:05:31;10.52;;;3.20;;
34134;SDS011;20410;55.578;12.968;2023-08-08T08:07:57;10.07;;;3.33;;
34134;SDS011;20410;55.578;12.968;2023-08-08T08:10:22;12.23;;;2.80;;
34134;SDS011;20410;55.578;12.968;2023-08-08T08:12:48;14.77;;;3.60;;
34134;SDS011;20410;55.578;12.968;2023-08-08T08:15:13;13.52;;;3.03;;
34134;SDS011;20410;55.578;12.968;2023-08-08T08:17:39;11.65;;;3.38;;
34134;SDS011;20410;55.578;12.968;2023-08-08T08:20:05;9.77;;;3.10;;
34134;SDS011;20410;55.578;12.968;2023-08-08T08:22:35;12.00;;;3.45;;
34134;SDS011;20410;55.578;12.968;2023-08-08T08:25:01;11.35;;;3.20;;
34134;SDS011;20410;55.578;12.968;2023-08-08T08:27:27;12.82;;;3.65;;
34134;SDS011;20410;55.578;12.968;2023-08-08T08:29:53;16.02;;;3.55;;
34134;SDS011;20410;55.578;12.968;2023-08-08T08:32:18;11.23;;;3.10;;
34134;SDS011;20410;55.578;12.968;2023-08-08T08:34:44;10.55;;;3.15;;
34134;SDS011;20410;55.578;12.968;2023-08-08T08:37:10;10.50;;;3.03;;
34134;SDS011;20410;55.578;12.968;2023-08-08T08:39:36;11.02;;;3.45;;
34134;SDS011;20410;55.578;12.968;2023-08-08T08:42:01;11.23;;;3.45;;
34134;SDS011;20410;55.578;12.968;2023-08-08T08:44:30;11.23;;;3.25;;
34134;SDS011;20410;55.578;12.968;2023-08-08T08:47:02;9.85;;;3.30;;
34134;SDS011;20410;55.578;12.968;2023-08-08T08:49:34;8.40;;;2.90;;
34134;SDS011;20410;55.578;12.968;2023-08-08T08:52:01;11.35;;;2.90;;
34134;SDS011;20410;55.578;12.968;2023-08-08T08:54:27;16.02;;;3.20;;
34134;SDS011;20410;55.578;12.968;2023-08-08T08:56:55;12.52;;;2.70;;
34134;SDS011;20410;55.578;12.968;2023-08-08T08:59:21;10.43;;;2.92;;
34134;SDS011;20410;55.578;12.968;2023-08-08T09:01:47;11.05;;;3.03;;
34134;SDS011;20410;55.578;12.968;2023-08-08T09:04:13;11.05;;;3.15;;
34134;SDS011;20410;55.578;12.968;2023-08-08T09:06:42;11.88;;;3.13;;
34134;SDS011;20410;55.578;12.968;2023-08-08T09:09:08;15.70;;;3.78;;
34134;SDS011;20410;55.578;12.968;2023-08-08T09:11:34;12.70;;;3.28;;
34134;SDS011;20410;55.578;12.968;2023-08-08T09:14:00;11.80;;;3.50;;
34134;SDS011;20410;55.578;12.968;2023-08-08T09:16:27;10.57;;;3.00;;
34134;SDS011;20410;55.578;12.968;2023-08-08T09:18:53;9.52;;;2.88;;
34134;SDS011;20410;55.578;12.968;2023-08-08T09:21:18;11.07;;;3.35;;
34134;SDS011;20410;55.578;12.968;2023-08-08T09:23:44;9.52;;;2.80;;
34134;SDS011;20410;55.578;12.968;2023-08-08T09:26:09;10.75;;;3.30;;
34134;SDS011;20410;55.578;12.968;2023-08-08T09:28:38;12.82;;;3.33;;
34134;SDS011;20410;55.578;12.968;2023-08-08T09:31:04;13.38;;;3.00;;
34134;SDS011;20410;55.578;12.968;2023-08-08T09:33:30;10.23;;;3.00;;
34134;SDS011;20410;55.578;12.968;2023-08-08T09:35:55;10.40;;;2.80;;
34134;SDS011;20410;55.578;12.968;2023-08-08T09:38:21;11.50;;;3.33;;
34134;SDS011;20410;55.578;12.968;2023-08-08T09:40:46;10.38;;;2.95;;
34134;SDS011;20410;55.578;12.968;2023-08-08T09:43:12;8.35;;;3.15;;
34134;SDS011;20410;55.578;12.968;2023-08-08T09:45:38;10.43;;;2.90;;
34134;SDS011;20410;55.578;12.968;2023-08-08T09:48:06;9.88;;;3.15;;
34134;SDS011;20410;55.578;12.968;2023-08-08T09:50:33;14.55;;;4.65;;
34134;SDS011;20410;55.578;12.968;2023-08-08T09:52:59;9.48;;;3.05;;
34134;SDS011;20410;55.578;12.968;2023-08-08T09:55:27;13.45;;;3.75;;
34134;SDS011;20410;55.578;12.968;2023-08-08T09:57:54;8.07;;;2.83;;
34134;SDS011;20410;55.578;12.968;2023-08-08T10:00:20;10.07;;;2.92;;
34134;SDS011;20410;55.578;12.968;2023-08-08T10:02:46;9.00;;;2.83;;
34134;SDS011;20410;55.578;12.968;2023-08-08T10:05:12;11.07;;;2.88;;
34134;SDS011;20410;55.578;12.968;2023-08-08T10:07:40;9.93;;;2.75;;
34134;SDS011;20410;55.578;12.968;2023-08-08T10:10:06;12.88;;;2.58;;
34134;SDS011;20410;55.578;12.968;2023-08-08T10:12:35;8.60;;;2.70;;
34134;SDS011;20410;55.578;12.968;2023-08-08T10:15:03;7.80;;;2.58;;
34134;SDS011;20410;55.578;12.968;2023-08-08T10:17:34;6.68;;;2.58;;
34134;SDS011;20410;55.578;12.968;2023-08-08T10:20:05;10.98;;;3.03;;
34134;SDS011;20410;55.578;12.968;2023-08-08T10:22:34;7.53;;;2.90;;
34134;SDS011;20410;55.578;12.968;2023-08-08T10:25:03;7.50;;;2.58;;
34134;SDS011;20410;55.578;12.968;2023-08-08T10:27:33;7.85;;;2.50;;
34134;SDS011;20410;55.578;12.968;2023-08-08T10:30:03;10.23;;;2.38;;
34134;SDS011;20410;55.578;12.968;2023-08-08T10:32:41;6.70;;;2.40;;
34134;SDS011;20410;55.578;12.968;2023-08-08T10:35:09;12.20;;;2.83;;
34134;SDS011;20410;55.578;12.968;2023-08-08T10:37:36;8.10;;;2.30;;
34134;SDS011;20410;55.578;12.968;2023-08-08T10:40:03;8.27;;;2.45;;
34134;SDS011;20410;55.578;12.968;2023-08-08T10:42:43;8.75;;;2.70;;
34134;SDS011;20410;55.578;12.968;2023-08-08T10:45:11;11.85;;;2.83;;
34134;SDS011;20410;55.578;12.968;2023-08-08T10:47:41;9.18;;;2.40;;
34134;SDS011;20410;55.578;12.968;2023-08-08T10:50:09;8.98;;;3.00;;
34134;SDS011;20410;55.578;12.968;2023-08-08T10:55:19;10.77;;;2.55;;
34134;SDS011;20410;55.578;12.968;2023-08-08T10:57:53;7.57;;;2.72;;
34134;SDS011;20410;55.578;12.968;2023-08-08T11:00:20;6.10;;;2.40;;
34134;SDS011;20410;55.578;12.968;2023-08-08T11:02:53;8.48;;;2.38;;
34134;SDS011;20410;55.578;12.968;2023-08-08T11:05:21;9.88;;;2.65;;
34134;SDS011;20410;55.578;12.968;2023-08-08T11:07:47;10.23;;;2.60;;
34134;SDS011;20410;55.578;12.968;2023-08-08T11:10:13;12.02;;;2.83;;
34134;SDS011;20410;55.578;12.968;2023-08-08T11:12:39;9.15;;;2.17;;
34134;SDS011;20410;55.578;12.968;2023-08-08T11:15:05;9.90;;;2.80;;
34134;SDS011;20410;55.578;12.968;2023-08-08T11:17:31;9.15;;;2.45;;
34134;SDS011;20410;55.578;12.968;2023-08-08T11:19:57;9.98;;;2.63;;
34134;SDS011;20410;55.578;12.968;2023-08-08T11:22:23;8.70;;;2.70;;
34134;SDS011;20410;55.578;12.968;2023-08-08T11:24:49;11.23;;;2.58;;
34134;SDS011;20410;55.578;12.968;2023-08-08T11:27:16;6.70;;;3.05;;
34134;SDS011;20410;55.578;12.968;2023-08-08T11:29:51;11.27;;;2.58;;
34134;SDS011;20410;55.578;12.968;2023-08-08T11:32:16;6.82;;;2.60;;
34134;SDS011;20410;55.578;12.968;2023-08-08T11:34:42;7.32;;;2.20;;
34134;SDS011;20410;55.578;12.968;2023-08-08T11:37:08;9.05;;;2.55;;
34134;SDS011;20410;55.578;12.968;2023-08-08T11:39:36;10.25;;;2.60;;
34134;SDS011;20410;55.578;12.968;2023-08-08T11:42:02;11.50;;;2.70;;
34134;SDS011;20410;55.578;12.968;2023-08-08T11:44:28;10.60;;;2.80;;
34134;SDS011;20410;55.578;12.968;2023-08-08T11:46:54;7.93;;;2.33;;
34134;SDS011;20410;55.578;12.968;2023-08-08T11:49:19;7.13;;;2.80;;
34134;SDS011;20410;55.578;12.968;2023-08-08T11:51:45;10.10;;;3.10;;
34134;SDS011;20410;55.578;12.968;2023-08-08T11:54:11;10.52;;;2.55;;
34134;SDS011;20410;55.578;12.968;2023-08-08T11:56:38;8.02;;;2.60;;
34134;SDS011;20410;55.578;12.968;2023-08-08T11:59:04;7.78;;;2.58;;
34134;SDS011;20410;55.578;12.968;2023-08-08T12:01:31;6.95;;;2.30;;
34134;SDS011;20410;55.578;12.968;2023-08-08T12:03:58;12.65;;;2.50;;
34134;SDS011;20410;55.578;12.968;2023-08-08T12:06:29;8.75;;;2.40;;
34134;SDS011;20410;55.578;12.968;2023-08-08T12:08:54;8.98;;;2.47;;
34134;SDS011;20410;55.578;12.968;2023-08-08T12:11:20;7.85;;;2.45;;
34134;SDS011;20410;55.578;12.968;2023-08-08T12:13:46;10.20;;;2.53;;
34134;SDS011;20410;55.578;12.968;2023-08-08T12:16:13;12.35;;;3.05;;
34134;SDS011;20410;55.578;12.968;2023-08-08T12:18:39;10.55;;;2.63;;
34134;SDS011;20410;55.578;12.968;2023-08-08T12:21:05;8.48;;;2.50;;
34134;SDS011;20410;55.578;12.968;2023-08-08T12:23:33;10.15;;;2.40;;
34134;SDS011;20410;55.578;12.968;2023-08-08T12:25:59;10.63;;;2.75;;
34134;SDS011;20410;55.578;12.968;2023-08-08T12:28:25;6.85;;;2.72;;
34134;SDS011;20410;55.578;12.968;2023-08-08T12:30:51;5.20;;;2.47;;
34134;SDS011;20410;55.578;12.968;2023-08-08T12:33:17;6.65;;;2.47;;
34134;SDS011;20410;55.578;12.968;2023-08-08T12:35:42;10.27;;;2.70;;
34134;SDS011;20410;55.578;12.968;2023-08-08T12:38:08;9.35;;;2.42;;
34134;SDS011;20410;55.578;12.968;2023-08-08T12:40:35;7.93;;;2.42;;
34134;SDS011;20410;55.578;12.968;2023-08-08T12:43:00;10.57;;;2.60;;
34134;SDS011;20410;55.578;12.968;2023-08-08T12:45:26;7.20;;;2.38;;
34134;SDS011;20410;55.578;12.968;2023-08-08T12:47:51;7.20;;;2.45;;
34134;SDS011;20410;55.578;12.968;2023-08-08T12:50:17;8.90;;;2.55;;
34134;SDS011;20410;55.578;12.968;2023-08-08T12:52:43;9.23;;;2.53;;
34134;SDS011;20410;55.578;12.968;2023-08-08T12:55:09;7.00;;;2.22;;
34134;SDS011;20410;55.578;12.968;2023-08-08T12:57:36;7.43;;;2.33;;
34134;SDS011;20410;55.578;12.968;2023-08-08T13:00:03;7.97;;;2.42;;
34134;SDS011;20410;55.578;12.968;2023-08-08T13:02:29;9.35;;;2.60;;
34134;SDS011;20410;55.578;12.968;2023-08-08T13:04:55;7.18;;;2.25;;
34134;SDS011;20410;55.578;12.968;2023-08-08T13:07:20;9.20;;;2.25;;
34134;SDS011;20410;55.578;12.968;2023-08-08T13:09:46;7.65;;;2.45;;
34134;SDS011;20410;55.578;12.968;2023-08-08T13:12:11;10.43;;;2.55;;
34134;SDS011;20410;55.578;12.968;2023-08-08T13:14:37;5.10;;;2.08;;
34134;SDS011;20410;55.578;12.968;2023-08-08T13:17:03;8.70;;;2.67;;
34134;SDS011;20410;55.578;12.968;2023-08-08T13:19:29;6.80;;;1.98;;
34134;SDS011;20410;55.578;12.968;2023-08-08T13:21:55;12.73;;;2.50;;
34134;SDS011;20410;55.578;12.968;2023-08-08T13:24:21;5.93;;;2.00;;
34134;SDS011;20410;55.578;12.968;2023-08-08T13:26:49;6.68;;;2.17;;
34134;SDS011;20410;55.578;12.968;2023-08-08T13:29:15;6.80;;;2.13;;
34134;SDS011;20410;55.578;12.968;2023-08-08T13:31:41;8.18;;;2.65;;
34134;SDS011;20410;55.578;12.968;2023-08-08T13:34:07;9.10;;;2.50;;
34134;SDS011;20410;55.578;12.968;2023-08-08T13:36:33;7.70;;;2.05;;
34134;SDS011;20410;55.578;12.968;2023-08-08T13:38:58;8.60;;;2.38;;
34134;SDS011;20410;55.578;12.968;2023-08-08T13:41:24;5.57;;;1.90;;
34134;SDS011;20410;55.578;12.968;2023-08-08T13:43:50;7.53;;;2.22;;
34134;SDS011;20410;55.578;12.968;2023-08-08T13:46:15;6.95;;;2.28;;
34134;SDS011;20410;55.578;12.968;2023-08-08T13:48:41;8.55;;;2.05;;
34134;SDS011;20410;55.578;12.968;2023-08-08T13:51:07;9.15;;;2.15;;
34134;SDS011;20410;55.578;12.968;2023-08-08T13:53:32;8.50;;;2.20;;
34134;SDS011;20410;55.578;12.968;2023-08-08T13:55:59;9.50;;;2.78;;
34134;SDS011;20410;55.578;12.968;2023-08-08T13:58:24;7.97;;;1.98;;
34134;SDS011;20410;55.578;12.968;2023-08-08T14:00:50;8.95;;;2.22;;
34134;SDS011;20410;55.578;12.968;2023-08-08T14:03:16;8.45;;;2.20;;
34134;SDS011;20410;55.578;12.968;2023-08-08T14:05:41;6.82;;;2.10;;
34134;SDS011;20410;55.578;12.968;2023-08-08T14:08:08;6.05;;;2.38;;
34134;SDS011;20410;55.578;12.968;2023-08-08T14:10:34;7.30;;;2.35;;
34134;SDS011;20410;55.578;12.968;2023-08-08T14:13:00;7.35;;;1.80;;
34134;SDS011;20410;55.578;12.968;2023-08-08T14:15:25;7.22;;;2.10;;
34134;SDS011;20410;55.578;12.968;2023-08-08T14:17:51;7.05;;;2.30;;
34134;SDS011;20410;55.578;12.968;2023-08-08T14:20:17;7.07;;;2.13;;
34134;SDS011;20410;55.578;12.968;2023-08-08T14:22:44;6.28;;;2.10;;
34134;SDS011;20410;55.578;12.968;2023-08-08T14:25:11;5.38;;;2.22;;